Terminal Aerodrome Forecast
Issued by NWS Shreveport, LA

Home | Current Version | Previous Version | Text Only | Print | Product List | Glossary On
Versions: 1 2 3 4 5 6 7 8 9 10 11 12 13 14 15 16 17 18 19 20
000
FTUS44 KSHV 291528 AAB
TAFGGG
TAF AMD
KGGG 291528Z 2915/3012 15012KT P6SM SCT012 BKN040
      TEMPO 2916/2918 13014G22KT -SHRA BKN010
     FM291900 19012KT P6SM VCTS BKN040CB OVC100
     FM300000 18005KT P6SM SCT050 OVC250=

USA.gov is the U.S. government's official web portal to all federal, state and local government web resources and services.